createdAt,value
2023-04-02T00:00:26.028Z,94055.47
2023-04-02T00:03:10.986Z,94045.88
2023-04-02T00:05:57.416Z,94055.66
2023-04-02T00:08:45.703Z,94044.75
2023-04-02T00:11:36.403Z,94053.88
2023-04-02T00:14:27.105Z,94054.28
2023-04-02T00:17:13.263Z,94060.50
2023-04-02T00:20:02.981Z,94050.72
2023-04-02T00:22:48.539Z,94054.75
2023-04-02T00:25:43.731Z,94050.06
2023-04-02T00:28:29.987Z,94040.63
2023-04-02T00:31:16.069Z,94030.72
2023-04-02T00:34:06.314Z,94026.66
2023-04-02T00:36:52.245Z,94025.31
2023-04-02T00:39:41.891Z,94024.53
2023-04-02T00:42:29.862Z,94034.06
2023-04-02T00:45:25.466Z,94036.53
2023-04-02T00:48:28.229Z,94045.50
2023-04-02T00:51:19.836Z,94044.97
2023-04-02T00:54:10.440Z,94038.75
2023-04-02T00:56:59.866Z,94037.63
2023-04-02T00:59:57.874Z,94042.50
2023-04-02T01:02:43.723Z,94044.25
2023-04-02T01:05:29.745Z,94036.94
2023-04-02T01:08:26.922Z,94038.00
2023-04-02T01:11:27.746Z,94039.94
2023-04-02T01:14:20.324Z,94050.31
2023-04-02T01:17:15.772Z,94051.41
2023-04-02T01:20:25.557Z,94058.25
2023-04-02T01:23:14.692Z,94056.69
2023-04-02T01:26:08.171Z,94055.53
2023-04-02T01:29:04.556Z,94060.03
2023-04-02T01:31:50.916Z,94062.69
2023-04-02T01:34:35.184Z,94066.97
2023-04-02T01:37:37.961Z,94070.81
2023-04-02T01:40:36.931Z,94065.25
2023-04-02T01:43:28.485Z,94054.59
2023-04-02T01:46:28.516Z,94069.97
2023-04-02T01:49:17.674Z,94056.94
2023-04-02T01:52:02.488Z,94062.50
2023-04-02T01:54:49.230Z,94063.75
2023-04-02T01:57:35.534Z,94058.13
2023-04-02T02:00:20.231Z,94063.31
2023-04-02T02:03:09.606Z,94062.19
2023-04-02T02:05:57.453Z,94060.47
2023-04-02T02:08:48.656Z,94063.63
2023-04-02T02:11:37.156Z,94054.59
2023-04-02T02:14:26.180Z,94065.22
2023-04-02T02:17:16.550Z,94061.66
2023-04-02T02:20:13.045Z,94069.19
2023-04-02T02:23:01.933Z,94067.75
2023-04-02T02:25:50.006Z,94062.06
2023-04-02T02:28:40.693Z,94067.94
2023-04-02T02:31:33.506Z,94061.75
2023-04-02T02:34:25.253Z,94057.97
2023-04-02T02:37:18.974Z,94062.69
2023-04-02T02:40:09.088Z,94055.56
2023-04-02T02:42:58.237Z,94048.97
2023-04-02T02:45:45.136Z,94055.69
2023-04-02T02:48:36.960Z,94056.56
2023-04-02T02:51:27.868Z,94066.06
2023-04-02T02:54:16.089Z,94054.91
2023-04-02T02:57:06.263Z,94058.75
2023-04-02T02:59:54.204Z,94060.91
2023-04-02T03:02:41.004Z,94057.41
2023-04-02T03:05:29.850Z,94062.03
2023-04-02T03:08:22.528Z,94049.88
2023-04-02T03:11:14.863Z,94057.88
2023-04-02T03:14:13.756Z,94050.72
2023-04-02T03:17:02.944Z,94063.44
2023-04-02T03:19:53.049Z,94072.91
2023-04-02T03:22:40.611Z,94067.75
2023-04-02T03:25:33.469Z,94073.00
2023-04-02T03:28:26.666Z,94074.16
2023-04-02T03:31:17.402Z,94073.78
2023-04-02T03:34:04.862Z,94075.56
2023-04-02T03:36:57.117Z,94081.31
2023-04-02T03:39:45.818Z,94085.44
2023-04-02T03:42:38.449Z,94089.69
2023-04-02T03:45:27.831Z,94094.88
2023-04-02T03:48:18.554Z,94088.59
2023-04-02T03:51:10.010Z,94087.84
2023-04-02T03:53:58.269Z,94073.28
2023-04-02T03:56:45.047Z,94085.94
2023-04-02T03:59:39.756Z,94072.13
2023-04-02T04:02:38.758Z,94086.03
2023-04-02T04:05:29.888Z,94084.44
2023-04-02T04:08:21.094Z,94082.06
2023-04-02T04:11:14.299Z,94082.09
2023-04-02T04:14:05.523Z,94084.44
2023-04-02T04:16:57.227Z,94091.13
2023-04-02T04:19:49.339Z,94096.47
2023-04-02T04:22:35.783Z,94097.06
2023-04-02T04:25:26.707Z,94102.56
2023-04-02T04:28:24.571Z,94115.22
2023-04-02T04:31:24.636Z,94110.69
2023-04-02T04:34:17.330Z,94112.50
2023-04-02T04:37:24.137Z,94118.03
2023-04-02T04:40:21.519Z,94114.88
2023-04-02T04:43:09.360Z,94124.16
2023-04-02T04:46:01.584Z,94135.59
2023-04-02T04:48:56.355Z,94125.13
2023-04-02T04:51:46.261Z,94123.69
2023-04-02T04:54:33.912Z,94113.56
2023-04-02T04:57:31.114Z,94122.22
2023-04-02T05:00:25.892Z,94118.59
2023-04-02T05:03:21.844Z,94124.88
2023-04-02T05:06:15.030Z,94115.34
2023-04-02T05:09:08.827Z,94129.63
2023-04-02T05:12:06.762Z,94116.94
2023-04-02T05:14:59.712Z,94123.03
2023-04-02T05:17:54.172Z,94121.81
2023-04-02T05:20:46.512Z,94117.38
2023-04-02T05:23:33.021Z,94127.63
2023-04-02T05:26:22.099Z,94133.66
2023-04-02T05:29:16.794Z,94133.63
2023-04-02T05:32:05.771Z,94128.63
2023-04-02T05:34:55.050Z,94129.91
2023-04-02T05:37:41.474Z,94130.19
2023-04-02T05:40:36.910Z,94134.38
2023-04-02T05:43:26.333Z,94144.13
2023-04-02T05:46:19.219Z,94146.13
2023-04-02T05:49:08.668Z,94151.00
2023-04-02T05:51:57.701Z,94140.91
2023-04-02T05:54:48.256Z,94145.34
2023-04-02T05:57:44.651Z,94143.81
2023-04-02T06:01:02.507Z,94153.94
2023-04-02T06:03:59.554Z,94150.53
2023-04-02T06:06:57.962Z,94163.88
2023-04-02T06:09:47.174Z,94154.50
2023-04-02T06:12:39.041Z,94154.53
2023-04-02T06:15:27.312Z,94157.53
2023-04-02T06:18:19.314Z,94151.41
2023-04-02T06:21:09.390Z,94150.00
2023-04-02T06:24:00.828Z,94137.00
2023-04-02T06:26:52.908Z,94139.44
2023-04-02T06:29:41.626Z,94144.13
2023-04-02T06:32:28.379Z,94146.59
2023-04-02T06:35:16.788Z,94151.88
2023-04-02T06:38:09.849Z,94144.03
2023-04-02T06:40:59.227Z,94154.47
2023-04-02T06:43:50.683Z,94149.16
2023-04-02T06:46:43.232Z,94146.13
2023-04-02T06:49:38.427Z,94140.25
2023-04-02T06:52:29.177Z,94148.59
2023-04-02T06:55:33.830Z,94151.34
2023-04-02T06:58:22.406Z,94155.41
2023-04-02T07:01:10.710Z,94161.91
2023-04-02T07:03:58.644Z,94161.75
2023-04-02T07:06:46.314Z,94176.41
2023-04-02T07:09:31.642Z,94179.22
2023-04-02T07:12:28.138Z,94170.56
2023-04-02T07:15:20.818Z,94171.25
2023-04-02T07:18:08.041Z,94178.91
2023-04-02T07:20:55.835Z,94173.69
2023-04-02T07:23:43.322Z,94172.91
2023-04-02T07:26:31.923Z,94182.31
2023-04-02T07:29:23.169Z,94189.78
2023-04-02T07:32:11.503Z,94187.03
2023-04-02T07:34:58.333Z,94190.66
2023-04-02T07:37:44.170Z,94193.66
2023-04-02T07:40:29.808Z,94190.13
2023-04-02T07:43:16.115Z,94188.56
2023-04-02T07:46:07.937Z,94180.66
2023-04-02T07:48:54.091Z,94195.69
2023-04-02T07:51:40.840Z,94197.34
2023-04-02T07:54:28.919Z,94178.28
2023-04-02T07:57:15.367Z,94185.84
2023-04-02T08:00:00.544Z,94183.09
2023-04-02T08:02:47.429Z,94180.97
2023-04-02T08:05:33.492Z,94182.13
2023-04-02T08:08:18.133Z,94186.66
2023-04-02T08:11:02.551Z,94179.81
2023-04-02T08:13:48.689Z,94188.47
2023-04-02T08:16:46.540Z,94183.56
2023-04-02T08:19:41.542Z,94170.97
2023-04-02T08:22:35.219Z,94184.47
2023-04-02T08:25:23.105Z,94182.25
2023-04-02T08:28:10.804Z,94182.75
2023-04-02T08:30:55.615Z,94185.06
2023-04-02T08:33:42.130Z,94195.00
2023-04-02T08:36:33.800Z,94193.63
2023-04-02T08:39:21.047Z,94193.28
2023-04-02T08:42:13.895Z,94194.84
2023-04-02T08:45:23.644Z,94202.38
2023-04-02T08:48:14.611Z,94207.31
2023-04-02T08:51:01.576Z,94204.44
2023-04-02T08:53:49.679Z,94204.78
2023-04-02T08:56:42.541Z,94193.53
2023-04-02T08:59:35.803Z,94190.53
2023-04-02T09:02:33.974Z,94185.75
2023-04-02T09:05:22.293Z,94191.72
2023-04-02T09:08:17.368Z,94187.28
2023-04-02T09:11:10.327Z,94182.50
2023-04-02T09:13:59.881Z,94192.78
2023-04-02T09:16:52.156Z,94182.09
2023-04-02T09:19:41.578Z,94178.53
2023-04-02T09:22:29.007Z,94183.84
2023-04-02T09:25:16.673Z,94190.63
2023-04-02T09:28:05.537Z,94190.16
2023-04-02T09:31:18.946Z,94178.16
2023-04-02T09:34:04.157Z,94177.34
2023-04-02T09:36:50.178Z,94162.72
2023-04-02T09:39:37.129Z,94186.38
2023-04-02T09:42:35.277Z,94177.75
2023-04-02T09:45:29.517Z,94171.81
2023-04-02T09:48:28.429Z,94167.84
2023-04-02T09:51:20.820Z,94164.13
2023-04-02T09:54:17.930Z,94160.22
2023-04-02T09:57:05.114Z,94160.22
2023-04-02T09:59:51.570Z,94169.03
2023-04-02T10:02:38.599Z,94162.53
2023-04-02T10:05:39.857Z,94157.84
2023-04-02T10:08:32.439Z,94156.38
2023-04-02T10:11:21.756Z,94157.44
2023-04-02T10:14:08.327Z,94142.50
2023-04-02T10:16:54.419Z,94151.44
2023-04-02T10:19:44.554Z,94141.84
2023-04-02T10:22:32.888Z,94144.28
2023-04-02T10:25:21.265Z,94135.53
2023-04-02T10:28:16.125Z,94140.56
2023-04-02T10:31:07.447Z,94134.72
2023-04-02T10:33:59.556Z,94140.59
2023-04-02T10:36:56.967Z,94139.28
2023-04-02T10:39:48.127Z,94149.00
2023-04-02T10:42:38.368Z,94142.16
2023-04-02T10:45:36.998Z,94145.72
2023-04-02T10:48:30.807Z,94149.44
2023-04-02T10:51:28.822Z,94137.34
2023-04-02T10:54:33.470Z,94139.94
2023-04-02T10:57:36.374Z,94137.19
2023-04-02T11:00:31.600Z,94141.56
2023-04-02T11:03:26.277Z,94130.78
2023-04-02T11:06:22.422Z,94130.78
2023-04-02T11:09:17.786Z,94125.78
2023-04-02T11:12:10.569Z,94126.91
2023-04-02T11:14:59.073Z,94135.31
2023-04-02T11:17:46.265Z,94129.75
2023-04-02T11:21:07.566Z,94130.34
2023-04-02T11:24:01.671Z,94132.34
2023-04-02T11:26:50.710Z,94134.16
2023-04-02T11:29:41.211Z,94123.31
2023-04-02T11:32:35.104Z,94108.47
2023-04-02T11:35:43.091Z,94114.94
2023-04-02T11:38:59.629Z,94110.34
2023-04-02T11:42:25.692Z,94120.56
2023-04-02T11:45:52.799Z,94101.88
2023-04-02T11:48:41.634Z,94110.41
2023-04-02T11:51:56.517Z,94102.34
2023-04-02T11:55:00.194Z,94115.56
2023-04-02T11:58:03.974Z,94117.97
2023-04-02T12:01:15.949Z,94112.72
2023-04-02T12:04:32.626Z,94098.56
2023-04-02T12:07:53.127Z,94105.16
2023-04-02T12:10:56.967Z,94101.59
2023-04-02T12:14:00.017Z,94097.03
2023-04-02T12:16:47.522Z,94098.28
2023-04-02T12:19:36.225Z,94102.31
2023-04-02T12:22:25.439Z,94096.88
2023-04-02T12:25:30.694Z,94093.50
2023-04-02T12:28:23.606Z,94095.41
2023-04-02T12:31:18.811Z,94073.56
2023-04-02T12:34:07.102Z,94083.59
2023-04-02T12:37:04.213Z,94089.28
2023-04-02T12:39:58.123Z,94092.41
2023-04-02T12:42:44.927Z,94099.91
2023-04-02T12:45:36.200Z,94087.84
2023-04-02T12:48:22.976Z,94092.09
2023-04-02T12:51:08.793Z,94083.63
2023-04-02T12:53:56.995Z,94091.38
2023-04-02T12:56:43.570Z,94087.69
2023-04-02T12:59:40.158Z,94076.69
2023-04-02T13:02:28.512Z,94069.88
2023-04-02T13:05:14.534Z,94069.63
2023-04-02T13:08:00.746Z,94054.59
2023-04-02T13:10:47.527Z,94061.06
2023-04-02T13:13:36.610Z,94069.03
2023-04-02T13:16:31.530Z,94066.81
2023-04-02T13:19:29.512Z,94065.28
2023-04-02T13:22:34.060Z,94059.97
2023-04-02T13:25:20.301Z,94060.13
2023-04-02T13:28:08.022Z,94062.88
2023-04-02T13:30:55.345Z,94067.13
2023-04-02T13:33:41.335Z,94060.75
2023-04-02T13:36:31.984Z,94055.09
2023-04-02T13:39:19.844Z,94054.16
2023-04-02T13:42:09.177Z,94056.22
2023-04-02T13:44:55.806Z,94048.38
2023-04-02T13:47:41.423Z,94054.69
2023-04-02T13:50:27.136Z,94055.66
2023-04-02T13:53:24.506Z,94050.88
2023-04-02T13:56:11.830Z,94036.75
2023-04-02T13:58:56.791Z,94043.41
2023-04-02T14:01:46.659Z,94054.00
2023-04-02T14:04:35.603Z,94039.34
2023-04-02T14:07:37.051Z,94049.84
2023-04-02T14:10:33.283Z,94051.91
2023-04-02T14:13:30.291Z,94040.00
2023-04-02T14:16:31.018Z,94033.06
2023-04-02T14:19:34.982Z,94035.03
2023-04-02T14:22:36.989Z,94041.38
2023-04-02T14:25:30.008Z,94043.47
2023-04-02T14:28:25.210Z,94044.25
2023-04-02T14:31:24.483Z,94047.69
2023-04-02T14:34:19.585Z,94034.63
2023-04-02T14:37:14.232Z,94035.75
2023-04-02T14:40:15.203Z,94039.59
2023-04-02T14:43:06.331Z,94041.13
2023-04-02T14:46:00.915Z,94041.72
2023-04-02T14:48:53.011Z,94033.84
2023-04-02T14:51:44.269Z,94038.59
2023-04-02T14:54:34.811Z,94038.59
2023-04-02T14:57:24.024Z,94040.16
2023-04-02T15:00:21.673Z,94046.78
2023-04-02T15:03:13.347Z,94043.03
2023-04-02T15:06:01.144Z,94052.06
2023-04-02T15:09:06.220Z,94053.72
2023-04-02T15:12:01.155Z,94057.19
2023-04-02T15:14:50.131Z,94060.28
2023-04-02T15:17:35.338Z,94052.91
2023-04-02T15:20:22.627Z,94047.22
2023-04-02T15:23:14.650Z,94058.22
2023-04-02T15:26:10.317Z,94055.16
2023-04-02T15:29:09.248Z,94058.34
2023-04-02T15:32:07.256Z,94051.59
2023-04-02T15:34:59.666Z,94049.69
2023-04-02T15:37:54.543Z,94065.28
2023-04-02T15:40:58.518Z,94061.16
2023-04-02T15:43:53.009Z,94063.56
2023-04-02T15:46:55.397Z,94068.03
2023-04-02T15:49:45.134Z,94060.19
2023-04-02T15:52:40.806Z,94062.84
2023-04-02T15:55:35.356Z,94065.09
2023-04-02T15:58:30.892Z,94061.19
2023-04-02T16:01:27.468Z,94069.13
2023-04-02T16:04:38.081Z,94075.19
2023-04-02T16:07:38.258Z,94070.03
2023-04-02T16:13:21.266Z,94079.31
2023-04-02T16:16:10.462Z,94084.06
2023-04-02T16:19:01.380Z,94077.25
2023-04-02T16:22:02.370Z,94082.25
2023-04-02T16:24:48.668Z,94088.53
2023-04-02T16:27:41.545Z,94090.06
2023-04-02T16:30:49.622Z,94092.16
2023-04-02T16:33:55.013Z,94084.59
2023-04-02T16:36:54.468Z,94090.06
2023-04-02T16:39:45.348Z,94097.88
2023-04-02T16:42:39.560Z,94101.00
2023-04-02T16:45:37.823Z,94099.16
2023-04-02T16:48:33.046Z,94092.13
2023-04-02T16:51:27.379Z,94092.84
2023-04-02T16:54:21.012Z,94089.16
2023-04-02T16:57:21.383Z,94097.78
2023-04-02T17:00:18.982Z,94101.91
2023-04-02T17:03:23.353Z,94102.69
2023-04-02T17:06:12.073Z,94107.06
2023-04-02T17:09:02.951Z,94111.16
2023-04-02T17:11:55.455Z,94122.06
2023-04-02T17:14:50.960Z,94122.31
2023-04-02T17:17:35.374Z,94125.63
2023-04-02T17:20:24.601Z,94127.69
2023-04-02T17:23:12.215Z,94134.44
2023-04-02T17:26:04.583Z,94136.19
2023-04-02T17:28:53.453Z,94135.41
2023-04-02T17:31:43.262Z,94142.88
2023-04-02T17:34:28.932Z,94149.81
2023-04-02T17:37:28.815Z,94163.81
2023-04-02T17:40:28.872Z,94164.50
2023-04-02T17:43:28.439Z,94174.66
2023-04-02T17:46:26.530Z,94168.34
2023-04-02T17:49:23.570Z,94174.06
2023-04-02T17:52:13.365Z,94172.16
2023-04-02T17:55:07.893Z,94183.34
2023-04-02T17:58:08.586Z,94184.22
2023-04-02T18:01:04.704Z,94193.06
2023-04-02T18:03:55.505Z,94192.78
2023-04-02T18:06:50.399Z,94197.91
2023-04-02T18:09:43.141Z,94199.44
2023-04-02T18:12:50.453Z,94193.41
2023-04-02T18:15:50.529Z,94191.28
2023-04-02T18:19:07.800Z,94192.25
2023-04-02T18:22:00.518Z,94206.28
2023-04-02T18:25:15.109Z,94208.00
2023-04-02T18:28:11.412Z,94214.56
2023-04-02T18:31:04.250Z,94221.75
2023-04-02T18:34:10.367Z,94225.25
2023-04-02T18:37:10.905Z,94228.41
2023-04-02T18:40:23.263Z,94235.34
2023-04-02T18:43:22.040Z,94241.81
2023-04-02T18:46:17.662Z,94243.22
2023-04-02T18:49:07.347Z,94242.16
2023-04-02T18:51:57.998Z,94243.41
2023-04-02T18:54:47.744Z,94251.16
2023-04-02T18:57:36.450Z,94263.97
2023-04-02T19:00:30.577Z,94257.31
2023-04-02T19:03:21.441Z,94259.09
2023-04-02T19:06:10.328Z,94253.53
2023-04-02T19:09:01.166Z,94259.97
2023-04-02T19:11:48.419Z,94252.19
2023-04-02T19:14:34.808Z,94261.53
2023-04-02T19:17:28.039Z,94248.38
2023-04-02T19:20:27.444Z,94256.91
2023-04-02T19:23:25.184Z,94263.97
2023-04-02T19:26:13.553Z,94267.59
2023-04-02T19:29:15.143Z,94260.19
2023-04-02T19:32:06.647Z,94262.31
2023-04-02T19:34:59.121Z,94258.78
2023-04-02T19:37:52.655Z,94258.53
2023-04-02T19:40:45.313Z,94255.53
2023-04-02T19:43:33.834Z,94259.69
2023-04-02T19:46:22.027Z,94264.81
2023-04-02T19:49:16.054Z,94262.56
2023-04-02T19:52:03.058Z,94273.53
2023-04-02T19:54:47.846Z,94268.47
2023-04-02T19:57:34.809Z,94280.19
2023-04-02T20:00:21.601Z,94281.78
2023-04-02T20:03:08.396Z,94270.41
2023-04-02T20:05:55.201Z,94281.34
2023-04-02T20:08:41.324Z,94277.03
2023-04-02T20:11:27.076Z,94268.72
2023-04-02T20:14:13.220Z,94286.75
2023-04-02T20:16:59.219Z,94284.38
2023-04-02T20:19:46.271Z,94283.50
2023-04-02T20:22:30.698Z,94287.09
2023-04-02T20:25:16.583Z,94278.88
2023-04-02T20:28:01.794Z,94284.16
2023-04-02T20:30:48.831Z,94284.63
2023-04-02T20:33:35.955Z,94277.75
2023-04-02T20:36:22.511Z,94275.97
2023-04-02T20:39:09.733Z,94283.66
2023-04-02T20:41:56.838Z,94287.94
2023-04-02T20:44:42.796Z,94292.81
2023-04-02T20:47:30.656Z,94296.94
2023-04-02T20:50:18.109Z,94303.69
2023-04-02T20:53:06.944Z,94276.56
2023-04-02T20:55:53.467Z,94298.63
2023-04-02T20:58:40.008Z,94296.84
2023-04-02T21:01:28.326Z,94305.81
2023-04-02T21:04:15.045Z,94295.22
2023-04-02T21:07:00.953Z,94296.47
2023-04-02T21:09:48.641Z,94294.97
2023-04-02T21:12:34.182Z,94288.88
2023-04-02T21:15:20.849Z,94300.16
2023-04-02T21:18:04.442Z,94298.44
2023-04-02T21:20:57.675Z,94302.69
2023-04-02T21:23:42.229Z,94305.66
2023-04-02T21:26:28.744Z,94309.81
2023-04-02T21:29:13.212Z,94312.72
2023-04-02T21:31:57.525Z,94312.34
2023-04-02T21:34:42.419Z,94313.22
2023-04-02T21:37:26.554Z,94317.69
2023-04-02T21:40:11.393Z,94320.34
2023-04-02T21:42:56.241Z,94328.56
2023-04-02T21:45:39.643Z,94331.44
2023-04-02T21:48:26.292Z,94319.81
2023-04-02T21:51:13.507Z,94323.19
2023-04-02T21:54:00.196Z,94328.09
2023-04-02T21:56:49.465Z,94330.13
2023-04-02T21:59:38.028Z,94333.03
2023-04-02T22:02:23.273Z,94342.19
2023-04-02T22:05:11.854Z,94337.91
2023-04-02T22:07:57.402Z,94328.44
2023-04-02T22:10:44.486Z,94326.16
2023-04-02T22:13:30.355Z,94328.31
2023-04-02T22:16:18.600Z,94330.94
2023-04-02T22:19:04.497Z,94331.44
2023-04-02T22:21:51.510Z,94329.56
2023-04-02T22:24:38.278Z,94336.97
2023-04-02T22:27:25.250Z,94336.59
2023-04-02T22:30:12.280Z,94332.84
2023-04-02T22:33:00.222Z,94340.03
2023-04-02T22:35:46.760Z,94344.44
2023-04-02T22:38:32.541Z,94342.69
2023-04-02T22:41:22.090Z,94340.34
2023-04-02T22:44:08.101Z,94344.09
2023-04-02T22:46:56.028Z,94342.38
2023-04-02T22:49:44.476Z,94342.00
2023-04-02T22:52:28.965Z,94339.63
2023-04-02T22:55:16.097Z,94339.22
2023-04-02T22:58:00.103Z,94339.06
2023-04-02T23:00:44.000Z,94340.47
2023-04-02T23:03:28.034Z,94344.03
2023-04-02T23:06:15.392Z,94344.88
2023-04-02T23:08:59.288Z,94348.47
2023-04-02T23:11:43.162Z,94350.88
2023-04-02T23:14:27.158Z,94344.75
2023-04-02T23:17:11.100Z,94340.97
2023-04-02T23:19:54.984Z,94345.00
2023-04-02T23:22:40.462Z,94345.00
2023-04-02T23:25:24.165Z,94344.25
2023-04-02T23:28:07.913Z,94337.31
2023-04-02T23:30:51.597Z,94350.25
2023-04-02T23:33:35.309Z,94345.09
2023-04-02T23:36:23.001Z,94341.94
2023-04-02T23:39:10.981Z,94344.31
2023-04-02T23:41:54.947Z,94332.09
2023-04-02T23:44:39.045Z,94334.84
2023-04-02T23:47:23.334Z,94335.19
2023-04-02T23:50:08.154Z,94333.25
2023-04-02T23:52:52.300Z,94327.00
2023-04-02T23:55:37.981Z,94342.81
2023-04-02T23:58:22.185Z,94337.69
